Time;durP1;ratioP1;P1;durP2;ratioP2;P2;SDS_P1;SDS_P2;PMS_P1;PMS_P2;Temp;Humidity;BMP_temperature;BMP_pressure;BME280_temperature;BME280_humidity;BME280_pressure;Samples;Min_cycle;Max_cycle;Signal;HPM_P1;HPM_P2
2023/01/19 00:00:39;;;;;;;2.28;0.80;;;3.90;99.90;;;;;;5011494;28;20041;-63
2023/01/19 00:03:14;;;;;;;6.40;1.00;;;3.80;99.90;;;;;;5033887;28;20037;-63
2023/01/19 00:05:44;;;;;;;5.60;0.75;;;3.80;99.90;;;;;;4993759;28;20107;-63
2023/01/19 00:08:16;;;;;;;4.10;0.90;;;3.90;99.90;;;;;;5014190;28;20085;-64
2023/01/19 00:10:50;;;;;;;6.65;0.98;;;3.90;99.90;;;;;;4979087;28;20057;-63
2023/01/19 00:13:16;;;;;;;7.97;1.35;;;3.90;99.90;;;;;;4994129;28;20048;-63
2023/01/19 00:15:42;;;;;;;5.65;0.90;;;3.90;99.90;;;;;;4978661;23;20035;-59
2023/01/19 00:18:08;;;;;;;6.00;0.90;;;3.90;99.90;;;;;;4966526;28;20042;-59
2023/01/19 00:20:34;;;;;;;5.22;0.82;;;3.90;99.90;;;;;;4963631;28;20558;-59
2023/01/19 00:23:04;;;;;;;4.95;1.65;;;3.90;99.90;;;;;;4969926;28;20050;-60
2023/01/19 00:25:30;;;;;;;4.22;0.70;;;3.90;99.90;;;;;;4953468;28;20489;-60
2023/01/19 00:27:59;;;;;;;8.90;1.67;;;3.90;99.90;;;;;;4967452;28;20125;-58
2023/01/19 00:30:24;;;;;;;8.93;0.98;;;4.00;99.90;;;;;;4962725;28;20049;-58
2023/01/19 00:32:50;;;;;;;4.13;0.93;;;4.00;99.90;;;;;;4962609;28;20043;-59
2023/01/19 00:35:16;;;;;;;8.75;1.27;;;4.00;99.90;;;;;;4966379;28;20043;-59
2023/01/19 00:37:44;;;;;;;7.53;1.33;;;4.00;99.90;;;;;;4978600;28;20042;-59
2023/01/19 00:40:14;;;;;;;6.97;0.90;;;4.00;99.90;;;;;;4971853;28;20133;-60
2023/01/19 00:42:40;;;;;;;3.17;1.23;;;3.90;99.90;;;;;;4989670;28;20374;-59
2023/01/19 00:45:08;;;;;;;6.60;1.00;;;4.00;99.90;;;;;;4965024;28;20049;-59
2023/01/19 00:47:33;;;;;;;6.10;1.35;;;3.90;99.90;;;;;;4968976;28;20077;-59
2023/01/19 00:49:59;;;;;;;7.82;1.08;;;3.90;99.90;;;;;;4992188;28;20089;-60
2023/01/19 00:52:25;;;;;;;7.38;1.25;;;3.90;99.90;;;;;;4983378;28;20269;-60
2023/01/19 00:54:51;;;;;;;10.38;1.30;;;4.00;99.90;;;;;;4990315;28;20039;-58
2023/01/19 00:57:18;;;;;;;6.35;1.00;;;4.00;99.90;;;;;;4966307;28;20046;-59
2023/01/19 00:59:44;;;;;;;10.93;1.27;;;4.00;99.90;;;;;;4963334;28;20046;-59
2023/01/19 01:02:10;;;;;;;4.10;0.82;;;4.00;99.90;;;;;;4987009;28;20046;-60
2023/01/19 01:04:40;;;;;;;8.40;1.88;;;4.00;99.90;;;;;;4974090;28;20054;-60
2023/01/19 01:07:05;;;;;;;9.90;2.00;;;4.00;99.90;;;;;;4987159;28;20599;-59
2023/01/19 01:09:31;;;;;;;11.82;1.55;;;4.10;99.90;;;;;;4982559;28;20043;-59
2023/01/19 01:12:00;;;;;;;9.75;1.45;;;4.10;99.90;;;;;;4985434;28;20490;-60
2023/01/19 01:14:26;;;;;;;10.75;1.60;;;4.10;99.90;;;;;;4986057;28;20041;-60
2023/01/19 01:16:51;;;;;;;10.20;1.65;;;4.10;99.90;;;;;;4972088;28;20042;-60
2023/01/19 01:19:17;;;;;;;12.82;1.13;;;4.10;99.90;;;;;;4954958;28;20141;-59
2023/01/19 01:21:43;;;;;;;9.85;2.05;;;4.10;99.90;;;;;;4962200;28;20554;-59
2023/01/19 01:24:09;;;;;;;10.27;1.70;;;4.10;99.90;;;;;;4950835;28;20293;-60
2023/01/19 01:26:35;;;;;;;8.13;2.08;;;4.20;99.90;;;;;;4968920;28;20048;-59
2023/01/19 01:29:00;;;;;;;10.18;2.58;;;4.20;99.90;;;;;;4965111;28;20050;-59
2023/01/19 01:31:26;;;;;;;8.60;2.08;;;4.20;99.90;;;;;;4951239;28;20042;-60
2023/01/19 01:33:52;;;;;;;10.13;1.70;;;4.20;99.90;;;;;;4969337;28;20924;-60
2023/01/19 01:36:18;;;;;;;6.63;1.38;;;4.20;99.90;;;;;;4949506;28;20172;-60
2023/01/19 01:38:44;;;;;;;12.27;1.45;;;4.20;99.90;;;;;;4983102;28;20141;-60
2023/01/19 01:41:12;;;;;;;9.20;1.38;;;4.20;99.90;;;;;;4968733;28;20085;-59
2023/01/19 01:43:52;;;;;;;7.18;2.33;;;4.20;99.90;;;;;;4951161;28;20046;-59
2023/01/19 01:46:18;;;;;;;13.95;3.55;;;4.20;99.90;;;;;;4979975;28;20048;-60
2023/01/19 01:48:54;;;;;;;9.95;2.63;;;4.20;99.90;;;;;;4955317;28;20046;-59
2023/01/19 01:51:28;;;;;;;9.32;2.70;;;4.20;99.90;;;;;;4978953;28;20422;-59
2023/01/19 01:53:58;;;;;;;7.28;1.40;;;4.20;99.90;;;;;;4978742;28;20066;-59
2023/01/19 01:56:31;;;;;;;12.15;1.77;;;4.20;99.90;;;;;;4986933;28;20105;-58
2023/01/19 01:58:58;;;;;;;5.50;0.85;;;4.20;99.90;;;;;;4978101;28;20471;-58
2023/01/19 02:04:11;;;;;;;11.75;1.95;;;4.20;99.90;;;;;;4943999;28;20062;-58
2023/01/19 02:14:51;;;;;;;5.00;0.90;;;4.20;99.90;;;;;;4986609;28;20039;-59
2023/01/19 02:17:17;;;;;;;7.93;1.20;;;4.20;99.90;;;;;;4967370;28;20042;-58
2023/01/19 02:19:43;;;;;;;5.75;1.08;;;4.10;99.90;;;;;;4964763;28;20343;-59
2023/01/19 02:22:13;;;;;;;6.18;1.50;;;4.10;99.90;;;;;;4971026;28;20038;-60
2023/01/19 02:24:39;;;;;;;9.23;2.83;;;4.10;99.90;;;;;;4966103;28;20038;-60
2023/01/19 02:27:06;;;;;;;4.82;2.35;;;4.20;99.90;;;;;;4959945;28;20031;-59
2023/01/19 02:29:33;;;;;;;8.30;2.60;;;4.10;99.90;;;;;;4946583;28;20904;-60
2023/01/19 02:32:01;;;;;;;9.00;2.60;;;4.10;99.90;;;;;;4982161;28;20042;-59
2023/01/19 02:34:27;;;;;;;7.38;2.90;;;4.10;99.90;;;;;;4991833;28;20042;-60
2023/01/19 02:37:05;;;;;;;3.70;1.77;;;4.10;99.90;;;;;;4967399;28;20050;-60
2023/01/19 02:39:46;;;;;;;7.88;1.48;;;4.10;99.90;;;;;;4981659;28;20477;-60
2023/01/19 02:42:17;;;;;;;5.75;1.50;;;4.10;99.90;;;;;;4982994;28;20039;-60
2023/01/19 02:44:47;;;;;;;5.85;1.50;;;4.10;99.90;;;;;;4984932;28;20066;-60
2023/01/19 02:47:13;;;;;;;8.38;2.42;;;4.10;99.90;;;;;;4942811;28;20050;-58
2023/01/19 02:49:39;;;;;;;11.07;3.15;;;4.10;99.90;;;;;;4964667;28;20146;-60
2023/01/19 02:52:14;;;;;;;8.30;2.85;;;4.10;99.90;;;;;;4979122;28;20513;-60
2023/01/19 02:54:54;;;;;;;11.23;2.80;;;4.10;99.90;;;;;;4977019;28;20049;-60
2023/01/19 02:57:44;;;;;;;7.47;3.50;;;4.10;99.90;;;;;;4978100;28;20050;-59
2023/01/19 03:00:26;;;;;;;12.68;2.25;;;4.10;99.90;;;;;;4969712;28;20050;-59
2023/01/19 03:03:16;;;;;;;6.90;1.42;;;4.10;99.90;;;;;;4978159;28;20077;-60
2023/01/19 03:05:52;;;;;;;6.90;0.88;;;4.10;99.90;;;;;;4962750;28;20517;-59
2023/01/19 03:08:40;;;;;;;6.78;0.90;;;4.10;99.90;;;;;;4968676;28;20050;-58
2023/01/19 03:11:12;;;;;;;9.60;1.02;;;4.10;99.90;;;;;;4971717;28;20055;-58
2023/01/19 03:13:59;;;;;;;5.10;0.98;;;4.20;99.90;;;;;;4970573;28;20053;-59
2023/01/19 03:16:41;;;;;;;4.10;0.90;;;4.20;99.90;;;;;;4992605;28;20073;-58
2023/01/19 03:19:31;;;;;;;4.05;0.80;;;4.10;99.90;;;;;;4953154;28;20222;-58
2023/01/19 03:22:12;;;;;;;8.85;1.00;;;4.10;99.90;;;;;;4986124;28;20537;-58
2023/01/19 03:24:42;;;;;;;4.20;0.65;;;4.20;99.90;;;;;;4985884;28;20069;-59
2023/01/19 03:27:24;;;;;;;8.60;1.23;;;4.20;99.90;;;;;;4968602;28;20618;-59
2023/01/19 03:30:14;;;;;;;8.07;1.90;;;4.20;99.90;;;;;;4987675;28;20052;-58
2023/01/19 03:32:51;;;;;;;8.25;0.95;;;4.20;99.90;;;;;;4958131;28;20058;-59
2023/01/19 03:35:21;;;;;;;8.73;1.38;;;4.20;99.90;;;;;;4989713;28;20106;-59
2023/01/19 03:37:49;;;;;;;7.38;1.13;;;4.20;99.90;;;;;;4969564;28;20054;-60
2023/01/19 03:40:16;;;;;;;4.20;0.70;;;4.20;99.90;;;;;;4963015;28;20442;-59
2023/01/19 03:42:43;;;;;;;4.28;1.27;;;4.20;99.90;;;;;;4982832;28;20081;-58
2023/01/19 03:45:10;;;;;;;6.13;1.10;;;4.20;99.90;;;;;;4982896;28;20053;-60
2023/01/19 03:47:37;;;;;;;6.63;1.55;;;4.20;99.90;;;;;;4948008;28;20030;-59
2023/01/19 03:50:08;;;;;;;7.68;1.10;;;4.20;99.90;;;;;;4984791;28;20044;-58
2023/01/19 03:52:33;;;;;;;8.50;1.20;;;4.20;99.90;;;;;;4958603;28;20577;-59
2023/01/19 03:55:04;;;;;;;12.40;2.05;;;4.20;99.90;;;;;;4958902;28;20210;-60
2023/01/19 03:57:31;;;;;;;13.07;2.50;;;4.20;99.90;;;;;;4985856;28;20042;-59
2023/01/19 03:59:57;;;;;;;9.25;1.00;;;4.30;99.90;;;;;;4982964;28;20037;-60
2023/01/19 04:02:23;;;;;;;5.63;1.40;;;4.30;99.90;;;;;;4946106;28;20038;-59
2023/01/19 04:04:49;;;;;;;11.18;1.40;;;4.30;99.90;;;;;;4934441;28;20050;-59
2023/01/19 04:07:15;;;;;;;5.47;1.05;;;4.30;99.90;;;;;;4960824;28;20050;-60
2023/01/19 04:09:41;;;;;;;8.63;1.10;;;4.40;99.90;;;;;;4976253;28;20053;-59
2023/01/19 04:12:07;;;;;;;6.43;1.35;;;4.40;99.90;;;;;;4960321;28;20034;-59
2023/01/19 04:14:32;;;;;;;7.72;1.20;;;4.40;99.90;;;;;;4981022;28;20071;-59
2023/01/19 04:16:58;;;;;;;6.53;1.23;;;4.40;99.90;;;;;;4966393;28;20610;-60
2023/01/19 04:19:24;;;;;;;7.30;1.08;;;4.30;99.90;;;;;;4960927;28;20088;-60
2023/01/19 04:21:54;;;;;;;7.80;1.00;;;4.40;99.90;;;;;;4949549;28;20050;-58
2023/01/19 04:24:20;;;;;;;6.38;1.95;;;4.30;99.90;;;;;;4961415;28;20041;-59
2023/01/19 04:26:46;;;;;;;5.28;0.90;;;4.30;99.90;;;;;;4951225;28;20158;-60
2023/01/19 04:29:12;;;;;;;13.57;1.00;;;4.30;99.90;;;;;;4966646;28;20206;-60
2023/01/19 04:31:38;;;;;;;7.05;0.82;;;4.30;99.90;;;;;;4983101;28;20041;-60
2023/01/19 04:34:04;;;;;;;8.70;1.00;;;4.30;99.90;;;;;;4979485;28;20457;-60
2023/01/19 04:36:32;;;;;;;5.90;0.80;;;4.30;99.90;;;;;;4962599;28;20035;-58
2023/01/19 04:38:58;;;;;;;9.20;1.30;;;4.30;99.90;;;;;;4983234;28;20038;-58
2023/01/19 04:41:23;;;;;;;4.35;0.90;;;4.30;99.90;;;;;;4970302;28;20412;-59
2023/01/19 04:43:49;;;;;;;6.90;0.82;;;4.40;99.90;;;;;;4991692;28;20122;-59
2023/01/19 04:46:15;;;;;;;6.28;1.17;;;4.40;99.90;;;;;;4962374;28;20132;-59
2023/01/19 04:48:41;;;;;;;9.45;2.05;;;4.40;99.90;;;;;;4962447;28;20507;-59
2023/01/19 04:51:07;;;;;;;4.00;0.90;;;4.40;99.90;;;;;;4955645;28;20146;-59
2023/01/19 04:53:33;;;;;;;4.07;0.75;;;4.70;99.90;;;;;;4957906;28;20046;-59
2023/01/19 04:55:59;;;;;;;6.03;1.10;;;4.50;99.90;;;;;;4954797;28;20054;-59
2023/01/19 04:58:26;;;;;;;7.63;2.20;;;4.40;99.90;;;;;;4967361;28;20042;-59
2023/01/19 05:00:52;;;;;;;8.75;3.15;;;4.40;99.90;;;;;;4988416;28;20061;-59
2023/01/19 05:03:18;;;;;;;7.18;1.27;;;4.40;99.90;;;;;;4959816;28;20494;-59
2023/01/19 05:05:44;;;;;;;6.30;1.17;;;4.40;99.90;;;;;;4976766;28;20034;-59
2023/01/19 05:08:11;;;;;;;11.88;1.50;;;4.40;99.90;;;;;;4969566;28;20530;-59
2023/01/19 05:10:36;;;;;;;7.63;1.15;;;4.40;99.90;;;;;;4990017;28;20345;-59
2023/01/19 05:13:03;;;;;;;7.07;1.35;;;4.40;99.90;;;;;;4959628;28;20184;-59
2023/01/19 05:15:28;;;;;;;7.75;1.25;;;4.40;99.90;;;;;;4999624;28;20077;-59
2023/01/19 05:17:56;;;;;;;10.30;1.13;;;4.40;99.90;;;;;;4994290;28;20070;-59
2023/01/19 05:20:23;;;;;;;8.13;1.27;;;4.40;99.90;;;;;;4963906;28;20057;-59
2023/01/19 05:22:51;;;;;;;7.88;1.33;;;4.40;99.90;;;;;;4975344;28;20055;-58
2023/01/19 05:25:17;;;;;;;7.50;1.40;;;4.30;99.90;;;;;;4991734;28;20140;-59
2023/01/19 05:27:43;;;;;;;13.65;1.48;;;4.40;99.90;;;;;;4971377;28;20046;-59
2023/01/19 05:30:11;;;;;;;7.82;1.98;;;4.30;99.90;;;;;;4987542;28;20096;-59
2023/01/19 05:32:39;;;;;;;5.38;1.27;;;4.30;99.90;;;;;;4971542;28;20046;-58
2023/01/19 05:35:06;;;;;;;7.20;1.50;;;4.30;99.90;;;;;;4963558;28;20046;-59
2023/01/19 05:37:35;;;;;;;5.00;1.08;;;4.30;99.90;;;;;;4971295;28;20043;-60
2023/01/19 05:40:00;;;;;;;7.72;1.48;;;4.20;99.90;;;;;;4983681;28;20077;-60
2023/01/19 05:42:26;;;;;;;11.00;1.98;;;4.20;99.90;;;;;;4987262;28;20191;-59
2023/01/19 05:44:52;;;;;;;5.60;1.33;;;4.20;99.90;;;;;;4966609;28;20187;-59
2023/01/19 05:47:17;;;;;;;8.85;1.35;;;4.10;99.90;;;;;;4959482;28;20046;-60
2023/01/19 05:49:43;;;;;;;10.93;1.90;;;4.10;99.90;;;;;;4975276;28;20473;-59
2023/01/19 05:52:09;;;;;;;6.80;1.42;;;4.10;99.90;;;;;;4992271;28;20085;-59
2023/01/19 05:54:35;;;;;;;11.55;2.05;;;4.10;99.90;;;;;;4961868;28;20038;-59
2023/01/19 05:57:01;;;;;;;13.10;1.58;;;4.10;99.90;;;;;;4989331;28;20050;-58
2023/01/19 05:59:27;;;;;;;12.07;1.65;;;4.10;99.90;;;;;;4996429;28;20038;-59
2023/01/19 06:01:58;;;;;;;11.95;1.90;;;4.20;99.90;;;;;;4967108;28;20109;-59
2023/01/19 06:04:27;;;;;;;8.70;1.48;;;4.30;99.90;;;;;;4988406;28;20042;-58
2023/01/19 06:06:53;;;;;;;13.00;1.50;;;4.40;99.90;;;;;;4989867;28;20108;-59
2023/01/19 06:09:18;;;;;;;14.95;2.08;;;4.40;99.90;;;;;;4991540;28;20045;-59
2023/01/19 06:11:47;;;;;;;11.05;2.38;;;4.40;99.90;;;;;;4975318;28;20046;-59
2023/01/19 06:14:13;;;;;;;14.25;1.80;;;4.50;99.90;;;;;;4971985;28;20504;-59
2023/01/19 06:16:39;;;;;;;15.95;3.90;;;4.60;99.90;;;;;;4991457;28;20503;-56
2023/01/19 06:19:05;;;;;;;12.98;2.10;;;4.70;99.90;;;;;;4957835;28;20481;-59
2023/01/19 06:21:31;;;;;;;13.65;2.92;;;4.70;99.90;;;;;;4993105;28;20121;-59
2023/01/19 06:23:57;;;;;;;16.63;2.67;;;4.70;99.90;;;;;;4984265;28;20038;-59
2023/01/19 06:26:24;;;;;;;13.98;2.40;;;4.70;99.90;;;;;;4992399;28;20203;-58
2023/01/19 06:28:50;;;;;;;18.83;4.20;;;4.70;99.90;;;;;;4970237;28;20408;-58
2023/01/19 06:31:16;;;;;;;12.38;2.05;;;4.70;99.90;;;;;;4943779;28;20414;-59
2023/01/19 06:33:42;;;;;;;9.63;1.70;;;4.60;99.90;;;;;;4970176;28;20206;-59
2023/01/19 06:36:08;;;;;;;17.92;2.42;;;4.60;99.90;;;;;;4971381;28;20065;-59
2023/01/19 06:38:34;;;;;;;10.75;1.75;;;4.60;99.90;;;;;;4962172;28;20061;-58
2023/01/19 06:41:03;;;;;;;15.30;3.70;;;4.50;99.90;;;;;;4983626;28;20038;-58
2023/01/19 06:43:30;;;;;;;9.70;1.70;;;4.50;99.90;;;;;;4954383;28;20046;-59
2023/01/19 06:45:56;;;;;;;9.57;2.47;;;4.50;99.90;;;;;;4967666;28;20071;-59
2023/01/19 06:48:22;;;;;;;16.13;2.45;;;4.60;99.90;;;;;;4971538;28;20093;-59
2023/01/19 06:50:48;;;;;;;10.82;2.67;;;4.60;99.90;;;;;;4972596;28;20311;-59
2023/01/19 06:53:15;;;;;;;13.63;2.05;;;4.60;99.90;;;;;;4988656;28;20138;-59
2023/01/19 06:55:42;;;;;;;12.68;2.25;;;4.70;99.90;;;;;;4951202;28;20133;-58
2023/01/19 06:58:09;;;;;;;18.08;2.33;;;4.60;99.90;;;;;;4990358;28;20042;-59
2023/01/19 07:00:35;;;;;;;13.13;2.00;;;4.60;99.90;;;;;;4971127;28;20062;-58
2023/01/19 07:03:00;;;;;;;13.93;1.98;;;4.60;99.90;;;;;;4974871;28;20485;-59
2023/01/19 07:05:26;;;;;;;19.10;3.20;;;4.60;99.90;;;;;;4968438;28;20575;-58
2023/01/19 07:07:53;;;;;;;15.23;3.00;;;4.60;99.90;;;;;;4974744;28;20034;-59
2023/01/19 07:10:20;;;;;;;13.13;2.75;;;4.60;99.90;;;;;;4950974;28;20660;-59
2023/01/19 07:12:46;;;;;;;11.98;2.15;;;4.60;99.90;;;;;;4957798;28;20049;-59
2023/01/19 07:15:16;;;;;;;13.63;2.38;;;4.60;99.90;;;;;;4974454;28;20409;-58
2023/01/19 07:17:42;;;;;;;12.07;2.25;;;4.60;99.90;;;;;;4975354;28;20129;-58
2023/01/19 07:20:11;;;;;;;16.98;2.53;;;4.60;99.90;;;;;;4966706;28;20189;-59
2023/01/19 07:22:37;;;;;;;15.43;2.55;;;4.60;99.90;;;;;;4972120;28;20061;-59
2023/01/19 07:25:04;;;;;;;20.17;3.55;;;4.60;99.90;;;;;;4972481;28;20042;-59
2023/01/19 07:27:29;;;;;;;20.30;2.88;;;4.60;99.90;;;;;;4974282;28;20391;-59
2023/01/19 07:29:55;;;;;;;12.00;2.33;;;4.70;99.90;;;;;;4984715;28;20527;-59
2023/01/19 07:32:21;;;;;;;17.13;3.15;;;4.70;99.90;;;;;;4986942;28;20235;-59
2023/01/19 07:34:47;;;;;;;12.23;2.00;;;4.60;99.90;;;;;;4984949;28;20043;-60
2023/01/19 07:37:12;;;;;;;13.80;3.40;;;4.70;99.90;;;;;;4962342;28;20715;-59
2023/01/19 07:39:38;;;;;;;14.30;2.83;;;4.70;99.90;;;;;;4995458;28;20073;-59
2023/01/19 07:42:04;;;;;;;13.55;2.70;;;4.70;99.90;;;;;;4969233;28;20266;-59
2023/01/19 07:44:33;;;;;;;11.23;2.50;;;4.70;99.90;;;;;;4992341;28;20096;-58
2023/01/19 07:46:59;;;;;;;14.45;3.63;;;4.70;99.90;;;;;;4987264;28;20049;-58
2023/01/19 07:49:24;;;;;;;12.05;2.25;;;4.70;99.90;;;;;;4973244;28;20042;-59
2023/01/19 07:51:50;;;;;;;12.48;1.90;;;4.70;99.90;;;;;;4984359;28;20034;-58
2023/01/19 07:54:16;;;;;;;13.57;2.78;;;4.60;99.90;;;;;;4995719;28;20064;-59
2023/01/19 07:56:41;;;;;;;18.90;2.58;;;4.60;99.90;;;;;;4953237;28;20548;-58
2023/01/19 07:59:09;;;;;;;13.73;2.22;;;4.60;99.90;;;;;;4957939;28;20053;-59
2023/01/19 08:01:34;;;;;;;19.90;3.25;;;4.50;99.90;;;;;;4983606;28;20046;-59
2023/01/19 08:04:00;;;;;;;21.30;3.17;;;4.50;99.90;;;;;;4991090;28;20133;-59
2023/01/19 08:06:32;;;;;;;23.80;4.60;;;4.50;99.90;;;;;;4990508;28;20046;-59
2023/01/19 08:08:57;;;;;;;18.70;3.00;;;4.50;99.90;;;;;;4975911;28;20046;-59
2023/01/19 08:11:23;;;;;;;22.23;2.75;;;4.40;99.90;;;;;;4989100;28;20046;-59
2023/01/19 08:13:49;;;;;;;18.42;3.00;;;4.40;99.90;;;;;;4973288;28;20191;-59
2023/01/19 08:16:14;;;;;;;17.23;4.85;;;4.40;99.90;;;;;;4950371;28;20038;-59
2023/01/19 08:18:41;;;;;;;21.58;4.10;;;4.40;99.90;;;;;;4989889;28;20125;-59
2023/01/19 08:21:07;;;;;;;18.48;3.13;;;4.40;99.90;;;;;;4953771;28;20050;-59
2023/01/19 08:23:33;;;;;;;19.92;2.92;;;4.40;99.90;;;;;;4995562;28;20084;-59
2023/01/19 08:25:59;;;;;;;13.98;2.97;;;4.40;99.90;;;;;;4956639;28;20081;-59
2023/01/19 08:28:25;;;;;;;21.45;3.88;;;4.40;99.90;;;;;;4985983;28;20066;-59
2023/01/19 08:30:54;;;;;;;22.55;4.00;;;4.40;99.90;;;;;;4972174;28;20058;-59
2023/01/19 08:33:24;;;;;;;25.80;3.80;;;4.40;99.90;;;;;;4969904;28;20081;-59
2023/01/19 08:35:51;;;;;;;23.67;3.75;;;4.40;99.90;;;;;;4988021;28;20034;-59
2023/01/19 08:38:20;;;;;;;18.35;2.75;;;4.40;99.90;;;;;;4965066;28;20061;-59
2023/01/19 08:40:47;;;;;;;14.68;3.13;;;4.40;99.90;;;;;;4987462;28;20050;-59
2023/01/19 08:43:15;;;;;;;15.75;3.67;;;4.40;99.90;;;;;;4991081;28;20502;-59
2023/01/19 08:45:51;;;;;;;17.67;3.25;;;4.50;99.90;;;;;;4955258;28;20049;-59
2023/01/19 08:48:20;;;;;;;19.33;4.53;;;4.40;99.90;;;;;;4988118;28;20049;-58
2023/01/19 08:50:47;;;;;;;18.58;3.00;;;4.40;99.90;;;;;;4975112;28;20417;-58
2023/01/19 08:53:14;;;;;;;21.65;3.42;;;4.40;99.90;;;;;;4981712;28;20081;-59
2023/01/19 08:55:39;;;;;;;14.68;2.92;;;4.40;99.90;;;;;;4993349;28;20236;-59
2023/01/19 08:58:07;;;;;;;16.70;2.67;;;4.40;99.90;;;;;;4990274;28;20042;-59
2023/01/19 09:00:34;;;;;;;15.05;2.72;;;4.40;99.90;;;;;;4962887;28;20448;-59
2023/01/19 09:03:03;;;;;;;20.08;4.03;;;4.40;99.90;;;;;;4988465;28;20049;-59
2023/01/19 09:05:37;;;;;;;14.30;2.35;;;4.40;99.90;;;;;;4968509;28;20471;-59
2023/01/19 09:08:09;;;;;;;15.05;2.17;;;4.40;99.90;;;;;;4990172;28;20159;-59
2023/01/19 09:10:36;;;;;;;14.68;2.53;;;4.50;99.90;;;;;;4974206;28;20064;-58
2023/01/19 09:13:09;;;;;;;9.52;2.45;;;4.60;99.90;;;;;;4992734;28;20402;-59
2023/01/19 09:15:39;;;;;;;12.73;2.33;;;4.60;99.90;;;;;;4998739;28;20048;-59
2023/01/19 09:18:08;;;;;;;12.60;2.00;;;4.60;99.90;;;;;;4969852;28;20401;-59
2023/01/19 09:20:37;;;;;;;14.27;3.75;;;4.60;99.90;;;;;;4987719;28;20497;-58
2023/01/19 09:23:04;;;;;;;16.33;3.08;;;4.60;99.90;;;;;;4994412;28;20040;-58
2023/01/19 09:25:31;;;;;;;15.65;2.92;;;4.70;99.90;;;;;;4989661;28;20038;-59
2023/01/19 09:27:59;;;;;;;10.18;2.08;;;4.70;99.90;;;;;;4986846;28;20038;-59
2023/01/19 09:30:28;;;;;;;14.85;2.85;;;4.80;99.90;;;;;;4978846;28;20438;-58
2023/01/19 09:32:53;;;;;;;15.02;2.58;;;4.80;99.90;;;;;;4989575;28;20038;-58
2023/01/19 09:35:20;;;;;;;11.77;1.90;;;4.90;99.90;;;;;;4963820;28;20101;-59
2023/01/19 09:37:46;;;;;;;13.05;2.33;;;4.90;99.90;;;;;;4971665;28;20045;-59
2023/01/19 09:40:14;;;;;;;7.20;1.73;;;4.90;99.90;;;;;;4978408;28;20103;-59
2023/01/19 09:42:46;;;;;;;9.38;1.80;;;4.90;99.90;;;;;;4967567;28;20085;-59
2023/01/19 09:45:28;;;;;;;10.02;1.80;;;4.80;99.90;;;;;;4950352;28;20409;-59
2023/01/19 09:47:55;;;;;;;13.90;2.58;;;4.80;99.90;;;;;;4973558;28;20190;-59
2023/01/19 09:50:27;;;;;;;10.00;1.95;;;4.80;99.90;;;;;;4995215;28;20718;-59
2023/01/19 09:53:00;;;;;;;13.18;2.28;;;4.90;99.90;;;;;;4991022;28;20066;-58
2023/01/19 09:55:27;;;;;;;7.97;2.00;;;5.00;99.90;;;;;;4987643;28;20042;-59
2023/01/19 09:57:53;;;;;;;15.48;3.22;;;5.10;99.90;;;;;;4966172;28;20513;-59
2023/01/19 10:00:26;;;;;;;12.00;2.63;;;5.10;99.90;;;;;;4968299;28;20055;-59
2023/01/19 10:02:58;;;;;;;15.60;2.70;;;5.20;99.90;;;;;;4991217;28;20050;-59
2023/01/19 10:05:44;;;;;;;10.85;1.83;;;5.30;99.90;;;;;;4986643;28;20048;-59
2023/01/19 10:08:29;;;;;;;17.95;2.30;;;5.40;99.90;;;;;;4952616;28;20061;-59
2023/01/19 10:10:56;;;;;;;;;;;5.50;99.90;;;;;;4983628;28;20046;-59
2023/01/19 10:13:37;;;;;;;14.15;2.55;;;5.50;99.90;;;;;;4991905;28;19917;-59
2023/01/19 10:16:30;;;;;;;12.75;2.35;;;5.60;99.90;;;;;;4965254;28;20463;-59
2023/01/19 10:19:01;;;;;;;12.38;2.53;;;5.60;99.90;;;;;;4987079;28;20042;-59
2023/01/19 10:21:34;;;;;;;15.38;2.40;;;5.70;99.90;;;;;;4986552;28;20047;-59
2023/01/19 10:24:16;;;;;;;16.35;1.95;;;5.70;99.90;;;;;;4991693;28;20073;-59
2023/01/19 10:26:45;;;;;;;10.07;1.63;;;5.80;99.90;;;;;;4992232;28;20042;-58
2023/01/19 10:29:37;;;;;;;17.52;3.05;;;5.90;99.90;;;;;;4973014;28;20062;-59
2023/01/19 10:32:05;;;;;;;18.20;1.77;;;5.90;99.90;;;;;;4950402;28;20073;-59
2023/01/19 10:34:31;;;;;;;11.60;1.60;;;6.00;99.90;;;;;;4966682;28;20042;-59
2023/01/19 10:37:14;;;;;;;15.48;2.72;;;6.10;99.90;;;;;;4980353;28;20610;-58
2023/01/19 10:39:41;;;;;;;10.48;2.00;;;6.10;99.90;;;;;;4985226;28;20038;-59
2023/01/19 10:42:14;;;;;;;7.32;2.00;;;6.10;99.90;;;;;;4953968;28;20041;-59
2023/01/19 10:44:40;;;;;;;9.27;2.25;;;6.20;99.90;;;;;;4994013;28;20042;-59
2023/01/19 10:47:16;;;;;;;11.93;2.28;;;6.20;99.90;;;;;;4982273;28;20065;-59
2023/01/19 10:49:42;;;;;;;6.18;1.80;;;6.30;99.90;;;;;;4992991;28;20265;-58
2023/01/19 10:52:25;;;;;;;9.63;2.53;;;6.30;99.90;;;;;;4995679;28;20125;-59
2023/01/19 10:54:51;;;;;;;8.70;1.48;;;6.40;99.90;;;;;;4990404;28;20038;-59
2023/01/19 10:57:30;;;;;;;6.05;1.30;;;6.40;99.90;;;;;;4975171;28;20497;-59
2023/01/19 10:59:56;;;;;;;7.35;1.20;;;6.40;99.90;;;;;;4973541;28;20043;-57
2023/01/19 11:02:34;;;;;;;10.07;1.60;;;6.40;99.90;;;;;;4982219;28;20461;-59
2023/01/19 11:05:20;;;;;;;5.70;1.35;;;6.40;99.90;;;;;;4957578;28;20033;-59
2023/01/19 11:07:46;;;;;;;11.63;1.50;;;6.40;99.90;;;;;;4989197;28;20038;-59
2023/01/19 11:10:27;;;;;;;12.07;1.50;;;6.40;99.90;;;;;;4952308;28;20414;-59
2023/01/19 11:12:59;;;;;;;9.15;1.15;;;6.50;99.90;;;;;;4957154;28;20042;-59
2023/01/19 11:15:33;;;;;;;5.88;1.00;;;6.50;99.90;;;;;;4991551;28;20038;-60
2023/01/19 11:18:02;;;;;;;6.03;1.00;;;6.50;99.90;;;;;;4985788;28;20042;-58
2023/01/19 11:20:48;;;;;;;6.50;1.00;;;6.50;99.90;;;;;;4980126;28;20238;-59
2023/01/19 11:23:28;;;;;;;4.63;0.80;;;6.60;99.90;;;;;;4975323;28;20049;-58
2023/01/19 11:26:00;;;;;;;8.65;1.52;;;6.70;99.90;;;;;;4963027;28;20054;-58
2023/01/19 11:28:55;;;;;;;6.65;1.48;;;6.70;99.90;;;;;;4967423;28;20711;-59
2023/01/19 11:31:26;;;;;;;;;;;6.70;99.90;;;;;;4983123;28;20053;-59
2023/01/19 11:33:55;;;;;;;7.03;1.70;;;6.70;99.90;;;;;;4971416;28;19917;-59
2023/01/19 11:36:26;;;;;;;8.70;1.23;;;6.70;99.90;;;;;;4976182;28;20363;-59
2023/01/19 11:38:57;;;;;;;6.47;1.15;;;6.60;99.90;;;;;;4970249;28;20053;-59
2023/01/19 11:41:32;;;;;;;7.63;1.45;;;6.50;99.90;;;;;;4995198;28;20049;-59
2023/01/19 11:44:14;;;;;;;7.65;1.20;;;6.30;99.90;;;;;;4951588;28;20085;-59
2023/01/19 11:46:42;;;;;;;6.88;1.20;;;6.40;99.90;;;;;;4987951;28;20193;-59
2023/01/19 11:49:20;;;;;;;5.43;0.85;;;6.50;99.90;;;;;;4987693;28;20192;-59
2023/01/19 11:52:15;;;;;;;5.18;1.00;;;6.60;99.90;;;;;;4992842;28;20105;-59
2023/01/19 11:54:51;;;;;;;6.32;1.40;;;6.70;99.90;;;;;;4985493;28;20048;-59
2023/01/19 11:57:16;;;;;;;8.43;1.98;;;6.70;99.90;;;;;;4990985;28;20078;-59
2023/01/19 11:59:43;;;;;;;11.05;2.28;;;6.70;99.90;;;;;;4986345;28;20038;-59
2023/01/19 12:02:24;;;;;;;6.90;1.38;;;6.70;99.90;;;;;;4950424;28;20041;-59
2023/01/19 12:04:53;;;;;;;11.43;2.53;;;6.60;99.90;;;;;;4969027;28;20479;-59
2023/01/19 12:07:26;;;;;;;9.80;2.60;;;6.40;99.90;;;;;;4992219;28;20058;-58
2023/01/19 12:10:00;;;;;;;11.70;3.22;;;6.30;99.90;;;;;;4984671;28;20042;-59
2023/01/19 12:12:28;;;;;;;;;;;6.20;99.90;;;;;;4974703;28;20042;-58
2023/01/19 12:15:21;;;;;;;11.93;1.50;;;6.10;99.90;;;;;;5002982;23;19969;-84
2023/01/19 12:18:14;;;;;;;9.52;1.73;;;6.10;99.90;;;;;;5006039;28;20502;-83
2023/01/19 12:21:32;;;;;;;9.40;2.05;;;6.00;99.90;;;;;;4989115;28;20077;-83
2023/01/19 12:31:50;;;;;;;10.13;2.05;;;5.90;99.90;;;;;;4994044;28;20096;-83
2023/01/19 12:42:04;;;;;;;8.00;1.88;;;5.90;99.90;;;;;;5010755;28;20046;-83
2023/01/19 12:48:35;;;;;;;12.18;1.67;;;5.80;99.90;;;;;;4950558;28;20552;-82
2023/01/19 13:09:38;;;;;;;11.70;1.60;;;5.80;99.90;;;;;;5036967;28;20045;-61
2023/01/19 13:12:16;;;;;;;11.77;1.60;;;5.80;99.90;;;;;;5004098;23;20050;-64
2023/01/19 13:14:42;;;;;;;8.02;1.83;;;5.70;99.90;;;;;;4986317;28;20089;-63
2023/01/19 13:17:34;;;;;;;8.75;1.88;;;5.70;99.90;;;;;;4983786;28;20034;-63
2023/01/19 13:20:22;;;;;;;9.85;1.52;;;5.70;99.90;;;;;;5003655;28;20049;-63
2023/01/19 13:23:18;;;;;;;6.22;1.25;;;5.60;99.90;;;;;;4981737;28;20670;-63
2023/01/19 13:25:51;;;;;;;20.40;4.85;;;5.60;99.90;;;;;;5002962;28;20038;-62
2023/01/19 13:28:21;;;;;;;7.55;1.48;;;5.60;99.90;;;;;;4981852;28;20807;-63
2023/01/19 13:30:57;;;;;;;14.23;1.77;;;5.60;99.90;;;;;;5004185;28;20386;-64
2023/01/19 13:33:26;;;;;;;7.55;1.02;;;5.60;99.90;;;;;;4999539;28;20045;-62
2023/01/19 13:35:55;;;;;;;9.60;1.55;;;5.60;99.90;;;;;;4985733;28;20060;-63
2023/01/19 13:38:25;;;;;;;6.35;1.38;;;5.60;99.90;;;;;;4985779;28;20033;-62
2023/01/19 13:40:53;;;;;;;12.07;1.45;;;5.70;99.90;;;;;;4999389;28;20069;-62
2023/01/19 13:43:29;;;;;;;12.90;2.53;;;5.80;99.90;;;;;;4983994;28;20045;-63
2023/01/19 13:46:02;;;;;;;6.85;1.67;;;5.90;99.90;;;;;;4975509;28;20050;-61
2023/01/19 13:48:30;;;;;;;9.10;1.42;;;5.90;99.90;;;;;;4980297;28;20128;-63
2023/01/19 13:51:04;;;;;;;4.82;1.35;;;5.80;99.90;;;;;;4966415;28;20042;-62
2023/01/19 13:53:31;;;;;;;10.43;1.25;;;5.80;99.90;;;;;;4975513;28;21051;-63
2023/01/19 13:56:07;;;;;;;6.60;0.98;;;5.80;99.90;;;;;;5007375;28;20033;-62